Time;durP1;ratioP1;P1;durP2;ratioP2;P2;SDS_P1;SDS_P2;PMS_P1;PMS_P2;Temp;Humidity;BMP_temperature;BMP_pressure;BME280_temperature;BME280_humidity;BME280_pressure;Samples;Min_cycle;Max_cycle;Signal;HPM_P1;HPM_P2
2022/07/14 00:01:46;;;;;;;9.85;4.25;;;;;;;15.22;88.11;101904.63;10562414;28;20042;-74
2022/07/14 00:06:47;;;;;;;14.02;4.78;;;;;;;15.22;88.28;101896.72;10547950;28;20041;-74
2022/07/14 00:11:47;;;;;;;7.03;4.13;;;;;;;15.15;88.09;101886.72;10525187;28;20479;-74
2022/07/14 00:16:48;;;;;;;14.65;4.22;;;;;;;15.26;86.92;101881.94;10556824;28;20487;-74
2022/07/14 00:21:48;;;;;;;14.07;6.18;;;;;;;15.24;86.58;101866.03;10568629;28;20039;-74
2022/07/14 00:26:49;;;;;;;10.82;4.65;;;;;;;15.08;86.57;101872.38;10548544;28;20084;-74
2022/07/14 00:31:49;;;;;;;14.63;6.05;;;;;;;14.89;87.74;101875.00;10542795;28;20040;-74
2022/07/14 00:36:50;;;;;;;9.45;5.10;;;;;;;14.76;88.45;101882.34;10554189;28;20032;-74
2022/07/14 00:41:50;;;;;;;15.93;5.85;;;;;;;14.57;88.78;101866.47;10546111;28;20050;-75
2022/07/14 00:46:51;;;;;;;10.65;3.97;;;;;;;14.38;89.01;101874.38;10527238;28;20127;-74
2022/07/14 00:51:51;;;;;;;11.35;4.00;;;;;;;14.41;90.12;101865.75;10560888;28;20039;-73
2022/07/14 00:56:52;;;;;;;15.32;6.70;;;;;;;14.30;91.54;101865.22;10544712;28;20054;-73
2022/07/14 01:01:52;;;;;;;13.60;5.25;;;;;;;14.31;92.16;101880.19;10514667;28;20101;-73
2022/07/14 01:06:53;;;;;;;9.15;4.75;;;;;;;14.34;92.31;101880.31;10537558;28;20032;-74
2022/07/14 01:11:54;;;;;;;13.43;4.93;;;;;;;14.39;92.30;101897.25;10514788;28;20063;-74
2022/07/14 01:16:55;;;;;;;12.25;5.30;;;;;;;14.41;92.07;101909.59;10523995;28;20038;-74
2022/07/14 01:21:56;;;;;;;13.73;6.25;;;;;;;14.43;92.40;101916.75;10506863;28;20036;-74
2022/07/14 01:26:56;;;;;;;11.27;4.95;;;;;;;14.49;92.20;101926.66;10521848;28;20028;-74
2022/07/14 01:31:57;;;;;;;10.52;4.22;;;;;;;14.51;91.65;101901.31;10516516;28;20089;-75
2022/07/14 01:36:57;;;;;;;13.20;4.93;;;;;;;14.49;91.60;101900.34;10552874;28;20049;-74
2022/07/14 01:41:58;;;;;;;12.75;5.57;;;;;;;14.47;91.00;101875.66;10546582;28;20032;-73
2022/07/14 01:46:58;;;;;;;11.57;5.60;;;;;;;14.38;91.59;101873.50;10541574;28;20040;-73
2022/07/14 01:51:59;;;;;;;12.30;4.50;;;;;;;14.34;91.77;101861.91;10542675;28;20035;-74
2022/07/14 01:56:59;;;;;;;13.98;5.57;;;;;;;14.34;92.23;101850.47;10502963;28;1179721;-74
2022/07/14 02:02:00;;;;;;;15.65;4.13;;;;;;;14.31;92.66;101843.31;10549324;28;20046;-74
2022/07/14 02:07:01;;;;;;;15.55;5.65;;;;;;;14.28;93.22;101853.69;10508367;28;20044;-74
2022/07/14 02:12:10;;;;;;;16.67;5.68;;;;;;;14.23;93.56;101868.38;10541412;28;20383;-74
2022/07/14 02:17:11;;;;;;;17.15;5.95;;;;;;;14.25;94.60;101856.19;10548326;28;20086;-73
2022/07/14 02:22:12;;;;;;;16.40;7.60;;;;;;;14.24;94.42;101876.38;10540012;28;20038;-73
2022/07/14 02:27:12;;;;;;;12.68;5.57;;;;;;;14.27;94.80;101886.13;10543707;28;20550;-73
2022/07/14 02:32:13;;;;;;;14.75;7.90;;;;;;;14.29;95.01;101887.09;10559555;28;20039;-73
2022/07/14 02:37:14;;;;;;;20.27;7.00;;;;;;;14.34;94.06;101885.59;10537689;28;20063;-73
2022/07/14 02:42:14;;;;;;;15.23;7.03;;;;;;;14.25;93.71;101879.88;10505126;28;20023;-73
2022/07/14 02:47:15;;;;;;;14.18;7.13;;;;;;;14.17;94.42;101855.84;10544363;28;20122;-74
2022/07/14 02:52:16;;;;;;;18.50;7.18;;;;;;;14.13;95.20;101852.97;10525701;28;20123;-73
2022/07/14 02:57:16;;;;;;;14.30;7.20;;;;;;;14.04;95.33;101864.84;10548066;28;20544;-74
2022/07/14 03:02:17;;;;;;;18.58;7.95;;;;;;;13.97;95.45;101869.75;10533120;28;20036;-73
2022/07/14 03:07:18;;;;;;;18.48;7.72;;;;;;;13.90;96.02;101868.50;10571678;28;20038;-73
2022/07/14 03:12:18;;;;;;;16.70;7.10;;;;;;;13.94;95.63;101862.56;10528030;28;20028;-73
2022/07/14 03:17:19;;;;;;;25.88;8.00;;;;;;;13.95;94.90;101859.13;10528119;28;20036;-74
2022/07/14 03:22:19;;;;;;;21.65;6.82;;;;;;;13.94;94.70;101850.34;10554925;28;20122;-74
2022/07/14 03:27:20;;;;;;;27.25;8.13;;;;;;;14.10;93.61;101833.56;10554021;28;20042;-74
2022/07/14 03:32:20;;;;;;;19.15;7.25;;;;;;;14.18;92.74;101825.13;10546033;28;20042;-75
2022/07/14 03:37:21;;;;;;;19.13;7.57;;;;;;;14.08;93.11;101826.44;10547976;28;20492;-75
2022/07/14 03:42:21;;;;;;;18.88;9.00;;;;;;;13.97;93.62;101827.63;10552957;28;20067;-73
2022/07/14 03:52:55;;;;;;;23.98;9.75;;;;;;;13.83;94.95;101841.00;10522926;28;20040;-73
2022/07/14 03:57:56;;;;;;;23.45;8.32;;;;;;;13.82;95.10;101848.81;10540957;28;20039;-74
2022/07/14 04:02:56;;;;;;;15.45;8.63;;;;;;;13.72;95.08;101853.59;10527837;28;20491;-74
2022/07/14 04:07:57;;;;;;;24.73;9.75;;;;;;;13.51;95.09;101859.56;10510578;28;20036;-73
2022/07/14 04:12:57;;;;;;;12.95;7.78;;;;;;;13.28;95.55;101863.63;10532229;28;20104;-74
2022/07/14 04:17:58;;;;;;;26.10;9.27;;;;;;;13.06;96.05;101861.56;10531281;28;20048;-73
2022/07/14 04:22:59;;;;;;;19.42;9.65;;;;;;;12.82;96.48;101856.81;10541766;28;20105;-73
2022/07/14 04:27:59;;;;;;;20.42;12.40;;;;;;;12.76;98.08;101861.72;10515971;28;20044;-73
2022/07/14 04:33:00;;;;;;;22.35;10.55;;;;;;;12.82;98.93;101855.91;10524409;28;20127;-74
2022/07/14 04:38:00;;;;;;;22.92;10.75;;;;;;;13.12;100.00;101853.13;10543977;28;20032;-74
2022/07/14 04:43:01;;;;;;;19.38;9.82;;;;;;;13.76;100.00;101847.69;10508401;28;20079;-73
2022/07/14 04:48:01;;;;;;;21.90;9.52;;;;;;;14.28;97.61;101864.22;10564849;28;20056;-73
2022/07/14 04:53:02;;;;;;;22.20;11.07;;;;;;;14.83;89.98;101844.00;10555955;28;20051;-73
2022/07/14 04:58:03;;;;;;;22.17;10.15;;;;;;;15.01;89.34;101841.31;10547050;28;20040;-73
2022/07/14 05:03:03;;;;;;;18.90;9.60;;;;;;;15.36;87.42;101838.41;10549663;28;20050;-73
2022/07/14 05:08:04;;;;;;;24.08;9.70;;;;;;;15.65;86.97;101844.94;10509258;28;20028;-73
2022/07/14 05:13:05;;;;;;;25.95;9.75;;;;;;;16.48;84.59;101835.06;10515154;28;20043;-74
2022/07/14 05:18:05;;;;;;;20.45;6.75;;;;;;;16.84;79.91;101835.59;10543262;28;20032;-74
2022/07/14 05:23:06;;;;;;;18.27;9.02;;;;;;;16.81;78.70;101830.19;10507765;28;20068;-74
2022/07/14 05:28:06;;;;;;;17.13;7.63;;;;;;;16.50;78.76;101833.38;10522681;28;20117;-73
2022/07/14 05:33:07;;;;;;;19.80;7.10;;;;;;;17.22;78.75;101834.31;10510294;28;20036;-73
2022/07/14 05:38:08;;;;;;;24.90;7.00;;;;;;;17.90;74.49;101834.88;10489856;28;20043;-74
2022/07/14 05:43:08;;;;;;;13.48;5.25;;;;;;;17.49;75.84;101852.88;10505779;28;20040;-74
2022/07/14 05:48:09;;;;;;;15.02;4.82;;;;;;;18.91;70.00;101850.31;10525214;28;20117;-74
2022/07/14 05:53:10;;;;;;;12.40;5.20;;;;;;;20.43;63.22;101840.97;10538568;28;20130;-75
2022/07/14 05:58:10;;;;;;;16.00;4.90;;;;;;;20.54;62.93;101836.78;10531305;28;20556;-74
2022/07/14 06:03:11;;;;;;;11.97;4.70;;;;;;;20.19;63.66;101851.94;10563232;28;20522;-73
2022/07/14 06:08:12;;;;;;;14.50;4.73;;;;;;;19.90;63.30;101847.72;10520037;28;20074;-74
2022/07/14 06:13:13;;;;;;;14.37;4.40;;;;;;;20.75;62.63;101842.53;10522410;28;20107;-74
2022/07/14 06:18:14;;;;;;;16.67;5.83;;;;;;;21.30;59.06;101844.53;10527864;28;20499;-74
2022/07/14 06:23:15;;;;;;;14.95;5.07;;;;;;;20.29;61.60;101851.31;10530514;28;20043;-73
2022/07/14 06:28:15;;;;;;;10.67;5.30;;;;;;;18.91;65.62;101845.94;10506550;28;20036;-74
2022/07/14 06:33:16;;;;;;;13.25;6.05;;;;;;;19.35;67.09;101857.78;10512155;28;20480;-74
2022/07/14 06:38:17;;;;;;;16.48;5.10;;;;;;;21.26;60.05;101852.47;10530768;28;20036;-74
2022/07/14 06:43:17;;;;;;;18.63;7.50;;;;;;;23.64;52.30;101841.59;10515885;28;20040;-73
2022/07/14 06:48:18;;;;;;;19.83;5.30;;;;;;;24.16;50.10;101833.09;10533155;28;20043;-74
2022/07/14 06:53:19;;;;;;;17.53;7.43;;;;;;;22.18;53.91;101832.72;10515082;28;20047;-74
2022/07/14 06:58:19;;;;;;;14.87;4.83;;;;;;;20.24;60.53;101831.69;10495828;28;20044;-75
2022/07/14 07:03:20;;;;;;;18.43;3.90;;;;;;;21.09;61.98;101820.19;10512204;28;20050;-74
2022/07/14 07:08:20;;;;;;;8.63;5.47;;;;;;;25.09;49.19;101806.75;10550720;28;20134;-75
2022/07/14 07:13:21;;;;;;;15.13;4.60;;;;;;;24.79;49.63;101827.19;10502936;28;20060;-75
2022/07/14 07:18:21;;;;;;;16.10;4.83;;;;;;;25.43;48.13;101828.25;10529404;28;20506;-75
2022/07/14 07:23:22;;;;;;;21.57;6.50;;;;;;;26.27;44.60;101816.63;10510923;28;20119;-76
2022/07/14 07:28:22;;;;;;;13.37;3.87;;;;;;;26.61;44.59;101816.50;10494307;28;20119;-76
2022/07/14 07:33:23;;;;;;;15.73;5.60;;;;;;;26.57;43.94;101830.84;10528663;28;20500;-76
2022/07/14 07:38:24;;;;;;;13.77;4.27;;;;;;;27.46;40.20;101839.31;10509705;28;20066;-75
2022/07/14 07:43:24;;;;;;;13.00;3.90;;;;;;;27.14;41.81;101835.94;10511688;28;20380;-75
2022/07/14 07:48:25;;;;;;;12.33;3.33;;;;;;;26.83;39.05;101830.75;10510256;28;20048;-76
2022/07/14 07:53:26;;;;;;;15.23;3.33;;;;;;;27.32;40.27;101815.22;10535430;28;20442;-76
2022/07/14 07:58:26;;;;;;;11.57;3.67;;;;;;;28.13;40.54;101810.09;10516907;28;20078;-77
2022/07/14 08:03:27;;;;;;;9.23;3.43;;;;;;;27.98;38.22;101808.41;10548893;28;20400;-76
2022/07/14 08:08:28;;;;;;;10.73;2.90;;;;;;;27.06;37.31;101800.16;10565676;28;20395;-75
2022/07/14 08:13:29;;;;;;;14.30;3.85;;;;;;;25.97;42.22;101791.63;10557924;28;20301;-75
2022/07/14 08:18:30;;;;;;;13.93;4.00;;;;;;;25.97;41.89;101780.91;10539642;28;20134;-77
2022/07/14 08:23:30;;;;;;;7.23;3.30;;;;;;;26.82;41.37;101785.97;10491708;28;20100;-75
2022/07/14 08:28:31;;;;;;;10.03;3.10;;;;;;;27.65;39.83;101778.25;10511536;28;20040;-75
2022/07/14 08:33:31;;;;;;;9.02;2.78;;;;;;;29.98;32.97;101773.22;10509175;28;20120;-75
2022/07/14 08:38:32;;;;;;;10.48;3.17;;;;;;;29.74;34.86;101774.56;10491538;28;20044;-76
2022/07/14 08:43:32;;;;;;;13.37;2.80;;;;;;;28.92;35.12;101763.31;10509007;28;20028;-77
2022/07/14 08:48:33;;;;;;;12.45;3.65;;;;;;;29.29;34.63;101756.47;10526272;28;20262;-76
2022/07/14 08:53:34;;;;;;;9.80;3.00;;;;;;;28.91;35.75;101756.13;10491397;28;20051;-77
2022/07/14 08:58:34;;;;;;;6.68;2.67;;;;;;;30.37;32.90;101752.69;10492363;28;20099;-77
2022/07/14 09:03:35;;;;;;;;;;;;;;;30.85;32.69;101757.94;10509222;28;20056;-76
2022/07/14 09:08:56;;;;;;;7.87;3.17;;;;;;;29.60;33.74;101766.75;10526101;28;19919;-76
2022/07/14 09:14:07;;;;;;;5.97;2.35;;;;;;;30.18;30.41;101758.47;10491797;28;20040;-76
2022/07/14 09:19:09;;;;;;;7.90;3.03;;;;;;;30.28;28.17;101761.84;10508471;28;20032;-75
2022/07/14 09:24:10;;;;;;;8.82;2.53;;;;;;;30.28;33.22;101768.16;10506822;28;20441;-76
2022/07/14 09:29:17;;;;;;;;;;;;;;;31.01;30.38;101761.16;10507596;28;20039;-76
2022/07/14 09:34:27;;;;;;;11.38;3.40;;;;;;;32.13;28.05;101762.81;10507194;28;19962;-76
2022/07/14 09:39:28;;;;;;;7.43;2.70;;;;;;;32.00;30.80;101760.47;10524903;28;20040;-76
2022/07/14 09:44:29;;;;;;;8.70;2.60;;;;;;;32.25;27.05;101751.63;10524935;28;20032;-76
2022/07/14 09:49:30;;;;;;;;;;;;;;;31.44;28.85;101761.94;10524877;28;20034;-76
2022/07/14 09:54:36;;;;;;;9.98;2.85;;;;;;;31.12;28.97;101776.22;10502335;28;19920;-76
2022/07/14 09:59:53;;;;;;;7.93;2.47;;;;;;;31.46;28.69;101762.78;10532413;28;20105;-75
2022/07/14 10:05:01;;;;;;;10.43;3.00;;;;;;;32.08;26.11;101765.63;10536217;28;20484;-76
2022/07/14 10:10:05;;;;;;;10.23;3.13;;;;;;;32.21;26.74;101753.50;10514191;28;20951;-76
2022/07/14 10:15:07;;;;;;;4.63;1.83;;;;;;;32.13;26.01;101751.97;10556483;28;20499;-76
2022/07/14 10:20:10;;;;;;;9.40;2.63;;;;;;;32.18;27.35;101756.31;10516303;28;20434;-77
2022/07/14 10:25:10;;;;;;;6.93;2.70;;;;;;;32.11;27.67;101757.41;10514521;28;20036;-78
2022/07/14 10:30:10;;;;;;;;;;;;;;;31.89;26.76;101749.91;10533488;28;20548;-78
2022/07/14 10:35:14;;;;;;;6.85;2.72;;;;;;;32.78;24.92;101756.31;10513773;28;19986;-78
2022/07/14 10:40:24;;;;;;;6.43;2.33;;;;;;;32.61;24.96;101753.25;10547823;28;20479;-77
2022/07/14 10:45:26;;;;;;;8.57;2.63;;;;;;;32.54;24.34;101757.09;10513879;28;20035;-77
2022/07/14 10:50:27;;;;;;;5.78;3.00;;;;;;;32.89;23.98;101758.75;10497778;28;20502;-77
2022/07/14 10:55:28;;;;;;;5.97;3.03;;;;;;;31.14;27.25;101755.44;10530201;28;20063;-78
2022/07/14 11:00:41;;;;;;;7.47;2.30;;;;;;;31.29;25.92;101749.69;10557217;28;20122;-77
2022/07/14 11:06:00;;;;;;;5.55;2.10;;;;;;;29.68;27.96;101751.31;10573113;28;20378;-77
2022/07/14 11:11:01;;;;;;;7.07;2.28;;;;;;;28.85;30.11;101750.84;10573445;28;20088;-76
2022/07/14 11:16:03;;;;;;;5.55;2.42;;;;;;;30.87;29.50;101750.69;10537792;28;20432;-78
2022/07/14 11:21:07;;;;;;;3.63;1.70;;;;;;;31.54;26.26;101748.16;10551886;28;20479;-77
2022/07/14 11:26:47;;;;;;;9.23;2.63;;;;;;;32.14;27.34;101761.88;10532647;28;20051;-77
2022/07/14 11:31:52;;;;;;;5.45;1.85;;;;;;;33.28;23.79;101751.16;10539293;28;20089;-75
2022/07/14 11:37:00;;;;;;;5.72;2.72;;;;;;;33.37;22.30;101756.25;10523058;28;20051;-76
2022/07/14 11:42:13;;;;;;;8.65;2.30;;;;;;;32.80;26.78;101746.31;10519618;28;20040;-76
2022/07/14 11:47:18;;;;;;;5.85;1.83;;;;;;;32.67;26.51;101747.66;10532913;28;20036;-76
2022/07/14 11:52:24;;;;;;;7.90;2.67;;;;;;;32.65;27.66;101745.00;10545200;28;20387;-77
2022/07/14 11:57:24;;;;;;;7.20;3.08;;;;;;;31.24;25.58;101746.19;10525970;28;20467;-76
2022/07/14 12:02:25;;;;;;;8.38;2.38;;;;;;;28.49;30.78;101755.81;10467433;28;20043;-76
2022/07/14 12:07:47;;;;;;;3.40;2.33;;;;;;;29.65;27.71;101754.06;10495624;28;20563;-76
2022/07/14 12:12:47;;;;;;;4.40;2.03;;;;;;;28.73;29.42;101760.84;10498190;28;20059;-75
2022/07/14 12:17:49;;;;;;;8.68;2.70;;;;;;;28.13;30.54;101765.22;10518466;28;20119;-74
2022/07/14 12:22:54;;;;;;;3.80;1.60;;;;;;;27.02;33.52;101769.78;10517744;28;20032;-74
2022/07/14 12:27:55;;;;;;;5.10;1.67;;;;;;;26.36;34.19;101761.13;10495942;28;20049;-74
2022/07/14 12:32:56;;;;;;;7.10;1.92;;;;;;;26.80;35.11;101752.84;10454836;28;20033;-75
2022/07/14 12:37:56;;;;;;;7.63;1.90;;;;;;;28.73;30.37;101744.69;10467520;28;20568;-74
2022/07/14 12:42:57;;;;;;;7.03;2.47;;;;;;;30.26;30.67;101745.72;10526525;28;20119;-75
2022/07/14 12:48:03;;;;;;;11.83;3.37;;;;;;;30.13;31.14;101747.75;10488779;28;20158;-77
2022/07/14 12:53:07;;;;;;;6.25;1.77;;;;;;;29.96;29.91;101734.59;10488388;28;20483;-75
2022/07/14 12:58:08;;;;;;;6.93;2.72;;;;;;;30.02;28.17;101739.00;10509190;28;20039;-75
2022/07/14 13:03:16;;;;;;;5.90;1.95;;;;;;;28.40;34.55;101738.88;10550945;28;20065;-76
2022/07/14 13:08:29;;;;;;;8.73;2.03;;;;;;;29.73;30.68;101733.22;10547606;28;20032;-76
2022/07/14 13:13:41;;;;;;;5.05;1.75;;;;;;;30.82;28.21;101720.19;10514903;28;20067;-74
2022/07/14 13:19:06;;;;;;;6.80;2.35;;;;;;;30.56;28.23;101736.94;10521973;28;20047;-74
2022/07/14 13:24:15;;;;;;;6.70;1.95;;;;;;;28.27;31.61;101740.84;10537398;28;20498;-74
2022/07/14 13:29:15;;;;;;;6.55;2.60;;;;;;;27.24;31.88;101749.00;10481189;28;20408;-75
2022/07/14 13:34:16;;;;;;;3.63;1.60;;;;;;;26.42;34.33;101751.25;10515534;28;20121;-75
2022/07/14 13:39:16;;;;;;;4.50;1.83;;;;;;;25.89;32.77;101760.34;10504579;28;20467;-75
2022/07/14 13:44:17;;;;;;;7.43;1.90;;;;;;;25.34;36.46;101763.94;10522501;28;20064;-74
2022/07/14 13:49:18;;;;;;;4.43;2.10;;;;;;;26.13;35.35;101768.34;10471159;28;20126;-74
2022/07/14 13:54:21;;;;;;;7.13;2.63;;;;;;;27.14;32.86;101768.78;10523975;28;20050;-74
2022/07/14 13:59:22;;;;;;;5.20;2.08;;;;;;;27.99;32.44;101753.69;10506657;28;20046;-75
2022/07/14 14:04:25;;;;;;;8.18;2.05;;;;;;;28.34;32.50;101762.31;10548192;28;20040;-75
2022/07/14 14:09:30;;;;;;;6.22;2.53;;;;;;;29.21;31.35;101766.47;10551778;28;20051;-75
2022/07/14 14:14:33;;;;;;;4.55;2.17;;;;;;;28.83;30.49;101763.44;10524055;28;20123;-75
2022/07/14 14:19:34;;;;;;;5.00;1.73;;;;;;;28.71;33.91;101757.28;10528212;28;20090;-74
2022/07/14 14:24:34;;;;;;;10.00;2.43;;;;;;;29.82;29.20;101766.34;10523234;28;20036;-74
2022/07/14 14:29:35;;;;;;;5.03;1.70;;;;;;;28.41;31.86;101762.19;10525072;28;20491;-74
2022/07/14 14:34:36;;;;;;;4.17;2.27;;;;;;;28.34;34.27;101768.56;10521783;28;20040;-74
2022/07/14 14:39:36;;;;;;;6.45;2.35;;;;;;;27.11;34.09;101768.78;10523990;28;20040;-75
2022/07/14 14:44:37;;;;;;;7.23;2.43;;;;;;;25.36;36.65;101767.50;10522365;28;20067;-76
2022/07/14 14:49:52;;;;;;;6.72;2.08;;;;;;;24.24;39.05;101772.53;10522800;28;20115;-75
2022/07/14 14:54:53;;;;;;;6.78;2.10;;;;;;;23.87;39.51;101769.59;10528270;28;20107;-75
2022/07/14 14:59:54;;;;;;;6.47;2.37;;;;;;;23.87;41.62;101770.53;10497932;28;20035;-73
2022/07/14 15:04:54;;;;;;;8.83;2.23;;;;;;;25.03;39.89;101771.94;10553883;28;20214;-74
2022/07/14 15:09:55;;;;;;;3.83;1.73;;;;;;;25.01;39.50;101773.72;10545064;28;20380;-74
2022/07/14 15:14:56;;;;;;;5.97;2.73;;;;;;;24.39;40.05;101771.72;10536377;28;20040;-73
2022/07/14 15:19:57;;;;;;;26.20;14.33;;;;;;;24.56;38.94;101773.56;10555611;28;20130;-74
2022/07/14 15:24:58;;;;;;;3.57;1.87;;;;;;;24.96;38.82;101762.09;10511780;28;20105;-75
2022/07/14 15:29:58;;;;;;;7.07;3.23;;;;;;;24.78;39.20;101767.44;10525466;28;20534;-74
2022/07/14 15:34:59;;;;;;;8.50;3.30;;;;;;;24.53;42.49;101774.44;10528005;28;20044;-74
2022/07/14 15:45:19;;;;;;;8.65;3.05;;;;;;;24.67;41.78;101768.25;10511760;28;20044;-74
2022/07/14 15:50:19;;;;;;;5.37;2.50;;;;;;;24.54;41.56;101770.88;10528169;28;20032;-75
2022/07/14 15:55:20;;;;;;;9.70;5.13;;;;;;;24.33;40.50;101766.34;10523649;28;20028;-73
2022/07/14 16:00:21;;;;;;;5.53;1.83;;;;;;;23.98;42.49;101759.88;10490983;28;20042;-73
2022/07/14 16:05:21;;;;;;;9.90;7.97;;;;;;;24.29;41.49;101760.06;10519098;28;20059;-75
2022/07/14 16:10:22;;;;;;;7.40;3.33;;;;;;;24.16;41.50;101751.13;10524865;28;20274;-73
2022/07/14 16:15:23;;;;;;;8.60;1.73;;;;;;;24.01;39.40;101740.34;10526357;28;20396;-72
2022/07/14 16:20:24;;;;;;;5.50;2.42;;;;;;;23.71;41.39;101737.44;10520063;28;20044;-74
2022/07/14 16:25:25;;;;;;;6.23;2.90;;;;;;;23.23;42.70;101738.81;10525625;28;20028;-71
2022/07/14 16:30:25;;;;;;;3.80;2.00;;;;;;;22.91;42.80;101737.63;10525070;28;20536;-72
2022/07/14 16:35:26;;;;;;;5.63;2.40;;;;;;;22.67;42.43;101741.81;10509077;28;20064;-72
2022/07/14 16:40:26;;;;;;;4.80;2.10;;;;;;;22.80;42.66;101740.16;10485340;28;20135;-74
2022/07/14 16:45:27;;;;;;;3.33;1.73;;;;;;;22.98;44.73;101743.91;10483554;28;20143;-73
2022/07/14 16:50:28;;;;;;;8.80;2.10;;;;;;;22.78;45.19;101738.38;10518283;28;20521;-73
2022/07/14 16:55:28;;;;;;;2.70;1.90;;;;;;;22.24;46.14;101746.59;10551334;28;20041;-73
2022/07/14 17:00:29;;;;;;;22.03;4.47;;;;;;;21.79;47.81;101759.28;10537315;28;20068;-73
2022/07/14 17:10:49;;;;;;;5.55;2.65;;;;;;;21.53;47.14;101757.06;10535270;28;20036;-72
2022/07/14 17:15:49;;;;;;;3.88;1.73;;;;;;;21.71;48.47;101756.50;10551609;28;20039;-75
2022/07/14 17:20:50;;;;;;;4.10;2.13;;;;;;;21.76;47.95;101756.56;10543938;28;20536;-75
2022/07/14 17:25:51;;;;;;;4.15;1.77;;;;;;;21.97;48.74;101762.22;10539256;28;20049;-76
2022/07/14 17:30:52;;;;;;;7.50;2.22;;;;;;;21.78;47.30;101770.81;10522961;28;20063;-76
2022/07/14 17:35:52;;;;;;;6.32;1.88;;;;;;;21.24;48.10;101784.09;10507968;28;20047;-76
2022/07/14 17:40:53;;;;;;;4.53;2.35;;;;;;;20.72;49.41;101773.31;10523316;28;20036;-73
2022/07/14 17:45:54;;;;;;;4.75;2.42;;;;;;;20.68;50.19;101777.66;10524427;28;20119;-74
2022/07/14 17:50:54;;;;;;;6.65;2.67;;;;;;;21.01;49.06;101779.22;10523574;28;20039;-75
2022/07/14 17:55:55;;;;;;;6.35;2.55;;;;;;;20.73;50.12;101793.75;10524760;28;20043;-76
2022/07/14 18:00:56;;;;;;;8.68;2.47;;;;;;;20.44;49.82;101789.59;10523592;28;20094;-76
2022/07/14 18:05:57;;;;;;;7.07;3.20;;;;;;;20.10;50.95;101796.81;10525692;28;20552;-76
2022/07/14 18:10:57;;;;;;;7.63;2.38;;;;;;;19.99;50.52;101793.00;10523063;28;20271;-76
2022/07/14 18:15:58;;;;;;;5.82;1.90;;;;;;;19.77;51.18;101792.47;10505222;28;20048;-76
2022/07/14 18:20:58;;;;;;;6.95;2.03;;;;;;;19.76;51.74;101795.97;10523986;28;20024;-76
2022/07/14 18:25:59;;;;;;;4.75;2.78;;;;;;;19.89;50.58;101805.16;10528389;28;20039;-76
2022/07/14 18:30:59;;;;;;;2.95;1.42;;;;;;;19.74;50.24;101818.94;10530538;28;20119;-76
2022/07/14 18:36:00;;;;;;;6.95;1.80;;;;;;;19.40;51.01;101815.41;10531388;28;20369;-76
2022/07/14 18:41:01;;;;;;;5.40;1.55;;;;;;;19.11;50.47;101829.72;10512846;28;20036;-76
2022/07/14 18:46:15;;;;;;;5.22;1.27;;;;;;;18.76;50.83;101833.13;10530620;28;20036;-76
2022/07/14 18:51:16;;;;;;;2.72;1.35;;;;;;;18.58;51.04;101824.63;10531481;28;20032;-76
2022/07/14 18:56:17;;;;;;;3.60;1.42;;;;;;;18.46;52.29;101838.41;10531423;28;20036;-76
2022/07/14 19:01:21;;;;;;;5.68;1.40;;;;;;;18.26;52.45;101846.66;10509227;28;20487;-76
2022/07/14 19:06:21;;;;;;;5.65;1.20;;;;;;;18.13;53.09;101850.63;10528860;28;20040;-76
2022/07/14 19:11:22;;;;;;;2.95;1.88;;;;;;;18.06;52.47;101859.22;10531040;28;20028;-76
2022/07/14 19:16:23;;;;;;;3.90;1.53;;;;;;;17.89;52.72;101864.84;10530974;28;20028;-75
2022/07/14 19:21:24;;;;;;;6.75;1.30;;;;;;;17.60;53.34;101863.88;10530761;28;20498;-75
2022/07/14 19:26:24;;;;;;;3.40;1.77;;;;;;;17.43;53.48;101864.19;10528647;28;20103;-75
2022/07/14 19:31:25;;;;;;;4.03;1.58;;;;;;;17.07;54.94;101872.59;10528670;28;20062;-76
2022/07/14 19:36:25;;;;;;;3.22;1.13;;;;;;;16.71;55.60;101876.50;10526684;28;20048;-75
2022/07/14 19:41:26;;;;;;;5.22;1.35;;;;;;;16.52;56.61;101884.53;10529943;28;20043;-76
2022/07/14 19:46:26;;;;;;;5.93;3.05;;;;;;;16.28;57.32;101890.66;10527695;28;20166;-75
2022/07/14 19:51:28;;;;;;;4.18;1.33;;;;;;;15.97;59.24;101898.22;10527354;28;20043;-75
2022/07/14 19:56:29;;;;;;;4.40;1.20;;;;;;;15.78;60.00;101898.25;10517988;28;20123;-75
2022/07/14 20:01:29;;;;;;;2.67;1.30;;;;;;;15.66;60.59;101910.09;10513646;28;20071;-77
2022/07/14 20:06:32;;;;;;;2.97;1.40;;;;;;;15.42;61.16;101917.81;10520611;28;21150;-75
2022/07/14 20:11:32;;;;;;;5.63;1.60;;;;;;;15.26;61.87;101924.16;10519842;28;20476;-75
2022/07/14 20:16:33;;;;;;;2.45;1.30;;;;;;;15.16;62.35;101930.72;10526938;28;20074;-75
2022/07/14 20:21:36;;;;;;;5.30;1.67;;;;;;;15.08;62.87;101932.09;10527341;28;20105;-76
2022/07/14 20:26:36;;;;;;;4.20;1.50;;;;;;;15.07;63.46;101938.22;10531527;28;20047;-75
2022/07/14 20:36:56;;;;;;;3.75;1.73;;;;;;;14.92;64.69;101948.94;10538240;28;20491;-76
2022/07/14 20:41:57;;;;;;;4.82;1.50;;;;;;;14.70;66.09;101945.28;10544525;28;20047;-76
2022/07/14 20:47:12;;;;;;;3.85;1.55;;;;;;;14.64;67.05;101951.13;10535027;28;20514;-75
2022/07/14 20:52:16;;;;;;;4.93;1.75;;;;;;;14.50;67.62;101950.47;10568415;28;20539;-75
2022/07/14 20:57:19;;;;;;;5.25;2.17;;;;;;;14.34;68.90;101964.59;10542145;28;20036;-75
2022/07/14 21:02:19;;;;;;;;;;;;;;;14.10;71.24;101957.28;10550519;28;20043;-75
2022/07/14 21:07:20;;;;;;;6.15;2.22;;;;;;;13.86;71.43;101969.19;10553087;28;19927;-76
2022/07/14 21:12:20;;;;;;;4.30;2.28;;;;;;;13.66;73.30;101963.78;10525163;28;20115;-75
2022/07/14 21:17:21;;;;;;;5.47;2.38;;;;;;;13.63;74.30;101959.28;10521556;28;20050;-76
2022/07/14 21:22:22;;;;;;;4.60;2.33;;;;;;;13.55;75.20;101962.31;10556489;28;20130;-75
2022/07/14 21:27:22;;;;;;;5.40;2.53;;;;;;;13.52;76.04;101970.97;10543972;28;20032;-76
2022/07/14 21:32:23;;;;;;;5.38;3.13;;;;;;;13.53;76.41;101964.88;10524739;28;20032;-76
2022/07/14 21:37:23;;;;;;;6.47;3.15;;;;;;;13.50;76.62;101975.22;10525284;28;20056;-75
2022/07/14 21:42:24;;;;;;;7.47;2.70;;;;;;;13.39;77.37;101974.59;10506329;28;20069;-77
2022/07/14 21:47:24;;;;;;;8.52;4.03;;;;;;;13.34;78.26;101982.25;10540249;28;20060;-75
2022/07/14 21:52:26;;;;;;;10.13;3.50;;;;;;;13.40;79.66;101983.41;10555392;28;20032;-77
2022/07/14 21:57:27;;;;;;;10.20;3.60;;;;;;;13.36;79.85;101993.78;10539814;28;20138;-76
2022/07/14 22:02:28;;;;;;;8.18;4.15;;;;;;;13.32;81.04;101993.50;10575525;28;20054;-76
2022/07/14 22:07:29;;;;;;;10.50;4.30;;;;;;;13.38;81.86;101996.47;10573496;28;20070;-76
2022/07/14 22:12:30;;;;;;;7.57;5.00;;;;;;;13.27;82.40;101997.59;10574339;28;20489;-76
2022/07/14 22:17:30;;;;;;;10.85;6.22;;;;;;;13.25;82.87;101997.53;10572080;28;20035;-76
2022/07/14 22:22:31;;;;;;;13.95;5.00;;;;;;;13.19;83.06;102002.47;10545483;28;20078;-76
2022/07/14 22:27:31;;;;;;;12.60;4.93;;;;;;;13.14;83.80;102002.19;10549627;28;20174;-76
2022/07/14 22:32:32;;;;;;;13.27;5.07;;;;;;;13.08;83.95;102009.72;10555739;28;20043;-76
2022/07/14 22:37:33;;;;;;;9.32;5.15;;;;;;;12.99;84.20;102020.66;10556283;28;20024;-76
2022/07/14 22:42:33;;;;;;;8.38;5.05;;;;;;;12.97;84.83;102014.41;10530932;28;20059;-76
2022/07/14 22:47:34;;;;;;;11.15;6.22;;;;;;;12.84;84.81;102020.66;10548908;28;20493;-75
2022/07/14 22:52:34;;;;;;;7.78;5.63;;;;;;;12.80;85.40;102029.19;10543331;28;20046;-76
2022/07/14 22:57:36;;;;;;;10.25;4.38;;;;;;;12.73;85.89;102030.59;10549860;28;20043;-76
2022/07/14 23:02:37;;;;;;;12.45;5.80;;;;;;;12.67;86.26;102024.97;10573407;28;20143;-78
2022/07/14 23:07:38;;;;;;;9.95;5.03;;;;;;;12.54;86.67;102032.97;10555613;28;20399;-75
2022/07/14 23:12:38;;;;;;;6.32;4.38;;;;;;;12.45;87.65;102036.84;10529693;28;20070;-75
2022/07/14 23:17:56;;;;;;;8.48;5.32;;;;;;;12.36;87.70;102032.78;10545663;28;20039;-76
2022/07/14 23:22:56;;;;;;;9.68;5.50;;;;;;;12.28;89.26;102042.84;10572844;28;20032;-75